TimeMDT,TemperatureF,Dew PointF,Humidity,Sea Level PressureIn,VisibilityMPH,Wind Direction,Wind SpeedMPH,Gust SpeedMPH,PrecipitationIn,Events,Conditions,WindDirDegrees,DateUTC
12:53 AM,17.1,10.9,77,30.77,10.0,WNW,11.5,-,0.00,,Overcast,290,2013-05-02 06:53:00
1:53 AM,16.0,10.0,77,30.78,10.0,West,10.4,-,0.00,,Mostly Cloudy,280,2013-05-02 07:53:00
2:53 AM,12.0,6.1,77,30.79,10.0,West,10.4,-,0.00,,Clear,270,2013-05-02 08:53:00
3:53 AM,10.0,5.0,80,30.81,10.0,West,12.7,-,N/A,,Clear,280,2013-05-02 09:53:00
4:53 AM,10.0,5.0,80,30.82,10.0,West,15.0,-,N/A,,Mostly Cloudy,280,2013-05-02 10:53:00
5:53 AM,9.0,3.9,80,30.84,10.0,West,11.5,-,N/A,,Partly Cloudy,280,2013-05-02 11:53:00
6:53 AM,10.9,3.9,73,30.85,10.0,WNW,10.4,-,0.00,,Clear,290,2013-05-02 12:53:00
7:53 AM,15.1,7.0,70,30.84,10.0,WNW,10.4,-,0.00,,Clear,290,2013-05-02 13:53:00
9:53 AM,19.4,10.4,68,30.63,10.0,West,11.5,-,N/A,,Clear,270,2013-05-02 15:53:00
10:53 AM,-9999,-9999,N/A,30.62,10.0,West,9.2,-,N/A,,Clear,270,2013-05-02 16:53:00
11:53 AM,33.1,12.9,43,30.76,10.0,WNW,8.1,-,N/A,,Clear,300,2013-05-02 17:53:00
12:11 PM,33.8,14.0,44,30.59,10.0,WNW,10.4,-,N/A,,Clear,300,2013-05-02 18:11:00
12:53 PM,35.1,14.0,42,30.73,10.0,WNW,6.9,-,N/A,,Clear,300,2013-05-02 18:53:00
1:53 PM,35.1,15.1,44,30.71,10.0,WNW,6.9,-,N/A,,Clear,300,2013-05-02 19:53:00
2:53 PM,36.0,8.1,31,30.70,10.0,WNW,5.8,-,N/A,,Clear,290,2013-05-02 20:53:00
3:53 PM,36.0,12.9,39,30.67,10.0,NW,6.9,-,N/A,,Clear,320,2013-05-02 21:53:00
4:53 PM,35.1,14.0,42,30.64,10.0,West,5.8,-,N/A,,Clear,260,2013-05-02 22:53:00
5:53 PM,33.1,21.0,61,30.64,10.0,SSW,12.7,-,N/A,,Clear,210,2013-05-02 23:53:00
6:53 PM,32.0,19.9,61,30.63,10.0,SSW,13.8,-,N/A,,Clear,210,2013-05-03 00:53:00
7:53 PM,30.9,16.0,54,30.62,10.0,WSW,6.9,-,N/A,,Clear,240,2013-05-03 01:53:00
8:53 PM,28.9,17.1,61,30.59,10.0,WSW,10.4,-,N/A,,Clear,240,2013-05-03 02:53:00
9:53 PM,27.0,17.1,66,30.56,10.0,WSW,9.2,-,N/A,,Clear,240,2013-05-03 03:53:00
10:53 PM,25.0,17.1,72,30.53,10.0,West,6.9,-,N/A,,Clear,280,2013-05-03 04:53:00
11:53 PM,24.1,15.1,69,30.49,10.0,West,9.2,-,N/A,,Clear,280,2013-05-03 05:53:00